Ganser Bar, California
Current Conditions -  °F | °C
As of 11:48 AM on Wednesday 26 Nov 2014 (Local Time) from KCIC Reporting Station
Broken Clouds Broken Clouds  
Wind Chill: 57°   Ceiling: 25000
Heat Index: 57°   Visibility: 40mi
Dew Point: 46°   Wind: 5mph
Humidity: 67%   Direction: 260°W
Pressure: 30.31"   Gusts: NA
Location:  40.0464°N, 121.282°W
Report Text: KCIC 261948Z 26004KT 40SM FEW180 BKN250 14/08 A3031
Loading
Personal Weather Stations






























Interactive Weather Map New forecast layout! Learn more

10-Day Weather Forecast

Advertisements
Track Severe Weather on mobile